createdAt,value
2023-08-11T00:00:11.836Z,2.30
2023-08-11T00:02:38.818Z,1.10
2023-08-11T00:05:05.854Z,2.53
2023-08-11T00:07:32.832Z,1.33
2023-08-11T00:10:01.139Z,2.80
2023-08-11T00:12:28.048Z,1.67
2023-08-11T00:14:54.940Z,1.77
2023-08-11T00:17:21.863Z,1.75
2023-08-11T00:19:48.800Z,3.08
2023-08-11T00:22:15.696Z,3.38
2023-08-11T00:24:42.579Z,6.85
2023-08-11T00:27:10.901Z,3.15
2023-08-11T00:29:37.825Z,2.35
2023-08-11T00:32:05.149Z,1.95
2023-08-11T00:34:32.078Z,3.08
2023-08-11T00:36:59.041Z,1.88
2023-08-11T00:39:25.997Z,2.03
2023-08-11T00:41:52.881Z,1.45
2023-08-11T00:44:21.173Z,1.80
2023-08-11T00:46:48.111Z,1.58
2023-08-11T00:49:14.999Z,2.00
2023-08-11T00:51:41.940Z,2.10
2023-08-11T00:54:08.831Z,2.42
2023-08-11T00:56:35.735Z,4.15
2023-08-11T00:59:02.684Z,3.17
2023-08-11T01:01:31.013Z,3.08
2023-08-11T01:03:57.972Z,3.42
2023-08-11T01:06:28.304Z,5.28
2023-08-11T01:08:59.806Z,4.50
2023-08-11T01:11:29.783Z,3.65
2023-08-11T01:14:01.136Z,5.40
2023-08-11T01:16:28.165Z,3.72
2023-08-11T01:18:56.441Z,4.15
2023-08-11T01:21:23.345Z,6.18
2023-08-11T01:23:51.611Z,4.97
2023-08-11T01:26:18.501Z,5.03
2023-08-11T01:28:45.413Z,6.43
2023-08-11T01:31:12.428Z,2.05
2023-08-11T01:33:39.408Z,8.18
2023-08-11T01:36:06.602Z,7.18
2023-08-11T01:38:33.516Z,5.18
2023-08-11T01:41:01.788Z,5.90
2023-08-11T01:43:28.940Z,6.53
2023-08-11T01:45:55.867Z,6.38
2023-08-11T01:48:22.775Z,6.90
2023-08-11T01:50:49.694Z,4.10
2023-08-11T01:53:16.593Z,5.72
2023-08-11T01:55:43.494Z,6.97
2023-08-11T01:58:11.745Z,4.90
2023-08-11T02:00:38.661Z,5.15
2023-08-11T02:03:06.085Z,5.28
2023-08-11T02:05:33.053Z,6.00
2023-08-11T02:07:59.966Z,5.53
2023-08-11T02:10:26.924Z,7.13
2023-08-11T02:12:53.841Z,7.40
2023-08-11T02:15:22.197Z,4.68
2023-08-11T02:17:49.174Z,4.50
2023-08-11T02:20:16.194Z,5.75
2023-08-11T02:22:43.100Z,4.68
2023-08-11T02:25:09.997Z,4.97
2023-08-11T02:27:36.941Z,5.32
2023-08-11T02:30:04.683Z,4.38
2023-08-11T02:32:33.012Z,4.35
2023-08-11T02:34:59.939Z,6.45
2023-08-11T02:37:27.100Z,3.22
2023-08-11T02:39:54.007Z,6.10
2023-08-11T02:42:20.927Z,4.53
2023-08-11T02:44:47.857Z,5.38
2023-08-11T02:47:14.749Z,7.68
2023-08-11T02:49:43.007Z,4.68
2023-08-11T02:52:10.097Z,6.78
2023-08-11T02:54:37.176Z,8.00
2023-08-11T02:57:04.496Z,5.32
2023-08-11T02:59:31.387Z,6.55
2023-08-11T03:01:58.269Z,6.93
2023-08-11T03:04:25.260Z,8.57
2023-08-11T03:06:53.536Z,6.20
2023-08-11T03:09:20.445Z,7.78
2023-08-11T03:11:47.401Z,10.05
2023-08-11T03:14:14.304Z,4.43
2023-08-11T03:16:41.234Z,5.82
2023-08-11T03:19:08.138Z,5.22
2023-08-11T03:21:35.085Z,6.35
2023-08-11T03:24:03.751Z,7.15
2023-08-11T03:26:30.873Z,5.47
2023-08-11T03:28:57.789Z,8.02
2023-08-11T03:31:24.688Z,6.22
2023-08-11T03:33:51.577Z,7.55
2023-08-11T03:36:18.493Z,5.60
2023-08-11T03:38:45.400Z,5.45
2023-08-11T03:41:13.718Z,7.05
2023-08-11T03:43:40.641Z,8.55
2023-08-11T03:46:07.542Z,7.07
2023-08-11T03:48:34.484Z,5.53
2023-08-11T03:51:01.449Z,6.10
2023-08-11T03:53:28.394Z,9.45
2023-08-11T03:55:55.309Z,6.85
2023-08-11T03:58:23.586Z,7.95
2023-08-11T04:00:50.493Z,7.75
2023-08-11T04:03:17.572Z,9.32
2023-08-11T04:05:44.548Z,8.02
2023-08-11T04:08:11.465Z,5.57
2023-08-11T04:10:38.409Z,5.30
2023-08-11T04:13:05.426Z,8.93
2023-08-11T04:15:34.303Z,6.45
2023-08-11T04:18:01.333Z,6.25
2023-08-11T04:20:28.324Z,9.15
2023-08-11T04:22:55.245Z,9.45
2023-08-11T04:25:22.221Z,9.15
2023-08-11T04:27:49.142Z,6.93
2023-08-11T04:30:16.116Z,9.02
2023-08-11T04:32:44.507Z,5.78
2023-08-11T04:35:11.773Z,9.32
2023-08-11T04:37:38.695Z,9.00
2023-08-11T04:40:06.422Z,6.40
2023-08-11T04:42:33.360Z,7.05
2023-08-11T04:45:00.274Z,8.93
2023-08-11T04:47:27.227Z,6.60
2023-08-11T04:49:55.647Z,7.72
2023-08-11T04:52:22.724Z,6.35
2023-08-11T04:54:49.673Z,12.80
2023-08-11T04:57:16.572Z,8.50
2023-08-11T04:59:43.476Z,7.28
2023-08-11T05:02:10.700Z,7.45
2023-08-11T05:04:37.914Z,7.97
2023-08-11T05:07:06.415Z,7.30
2023-08-11T05:09:33.470Z,11.18
2023-08-11T05:12:00.383Z,6.78
2023-08-11T05:14:27.328Z,10.95
2023-08-11T05:16:54.225Z,9.85
2023-08-11T05:19:21.130Z,7.88
2023-08-11T05:21:48.061Z,8.52
2023-08-11T05:24:16.359Z,9.55
2023-08-11T05:26:43.288Z,10.00
2023-08-11T05:29:12.113Z,13.88
2023-08-11T05:31:39.275Z,10.15
2023-08-11T05:34:06.185Z,9.60
2023-08-11T05:36:33.140Z,9.55
2023-08-11T05:39:00.027Z,8.48
2023-08-11T05:41:28.319Z,10.48
2023-08-11T05:43:55.251Z,8.60
2023-08-11T05:46:22.322Z,11.23
2023-08-11T05:48:49.337Z,7.05
2023-08-11T05:51:16.301Z,10.75
2023-08-11T05:53:43.267Z,8.13
2023-08-11T05:56:10.197Z,5.15
2023-08-11T05:58:38.461Z,7.28
2023-08-11T06:01:05.414Z,7.05
2023-08-11T06:03:32.510Z,7.82
2023-08-11T06:06:02.307Z,8.63
2023-08-11T06:08:29.229Z,6.25
2023-08-11T06:10:56.114Z,5.90
2023-08-11T06:13:23.277Z,4.53
2023-08-11T06:15:51.607Z,9.02
2023-08-11T06:18:18.552Z,8.50
2023-08-11T06:20:45.500Z,8.30
2023-08-11T06:23:12.456Z,7.38
2023-08-11T06:25:39.485Z,6.18
2023-08-11T06:28:06.758Z,7.68
2023-08-11T06:30:33.737Z,9.55
2023-08-11T06:33:02.079Z,7.70
2023-08-11T06:35:28.989Z,5.22
2023-08-11T06:37:55.911Z,6.18
2023-08-11T06:40:22.803Z,5.22
2023-08-11T06:42:49.729Z,5.50
2023-08-11T06:45:16.684Z,7.57
2023-08-11T06:47:43.614Z,6.03
2023-08-11T06:50:12.114Z,5.55
2023-08-11T06:52:39.065Z,7.25
2023-08-11T06:55:06.185Z,9.68
2023-08-11T06:57:33.114Z,8.18
2023-08-11T07:00:00.350Z,5.22
2023-08-11T07:02:27.428Z,8.88
2023-08-11T07:04:54.466Z,8.30
2023-08-11T07:07:23.243Z,8.07
2023-08-11T07:09:50.178Z,8.02
2023-08-11T07:12:17.072Z,10.45
2023-08-11T07:14:43.960Z,7.00
2023-08-11T07:17:11.213Z,6.95
2023-08-11T07:19:38.392Z,4.35
2023-08-11T07:22:05.507Z,4.72
2023-08-11T07:24:33.780Z,8.35
2023-08-11T07:27:00.681Z,5.15
2023-08-11T07:29:27.608Z,8.00
2023-08-11T07:31:54.566Z,5.47
2023-08-11T07:34:21.479Z,5.47
2023-08-11T07:36:48.411Z,5.15
2023-08-11T07:39:22.973Z,7.88
2023-08-11T07:41:52.299Z,4.13
2023-08-11T07:44:19.214Z,3.95
2023-08-11T07:46:46.356Z,5.43
2023-08-11T07:49:13.433Z,5.03
2023-08-11T07:51:40.517Z,5.20
2023-08-11T07:54:07.548Z,3.92
2023-08-11T07:56:34.683Z,6.47
2023-08-11T07:59:03.052Z,9.68
2023-08-11T08:01:30.013Z,5.68
2023-08-11T08:03:57.295Z,6.90
2023-08-11T08:06:24.258Z,6.25
2023-08-11T08:08:51.156Z,6.60
2023-08-11T08:11:18.351Z,8.13
2023-08-11T08:13:45.319Z,9.57
2023-08-11T08:16:13.659Z,8.63
2023-08-11T08:18:40.625Z,6.10
2023-08-11T08:21:07.545Z,7.60
2023-08-11T08:23:34.446Z,7.25
2023-08-11T08:26:01.365Z,7.55
2023-08-11T08:28:28.259Z,8.45
2023-08-11T08:30:55.148Z,7.82
2023-08-11T08:33:23.478Z,7.65
2023-08-11T08:35:50.450Z,10.23
2023-08-11T08:38:17.364Z,4.88
2023-08-11T08:40:44.315Z,8.77
2023-08-11T08:43:11.219Z,9.90
2023-08-11T08:45:38.327Z,13.20
2023-08-11T08:48:08.262Z,6.10
2023-08-11T08:50:36.624Z,8.30
2023-08-11T08:53:03.857Z,7.70
2023-08-11T08:55:30.765Z,8.38
2023-08-11T08:57:57.684Z,8.45
2023-08-11T09:00:24.695Z,11.13
2023-08-11T09:02:51.745Z,7.90
2023-08-11T09:05:18.875Z,8.20
2023-08-11T09:07:47.173Z,9.88
2023-08-11T09:10:14.087Z,8.27
2023-08-11T09:12:41.000Z,7.38
2023-08-11T09:15:10.355Z,9.25
2023-08-11T09:17:38.057Z,8.00
2023-08-11T09:20:05.924Z,9.50
2023-08-11T09:22:32.885Z,8.75
2023-08-11T09:25:01.454Z,10.23
2023-08-11T09:27:29.095Z,10.45
2023-08-11T09:29:56.653Z,9.88
2023-08-11T09:32:24.832Z,10.55
2023-08-11T09:34:53.685Z,11.05
2023-08-11T09:37:20.582Z,12.48
2023-08-11T09:39:49.076Z,9.20
2023-08-11T09:42:19.525Z,10.68
2023-08-11T09:44:46.476Z,7.35
2023-08-11T09:47:17.717Z,8.02
2023-08-11T09:49:49.741Z,8.02
2023-08-11T09:52:16.804Z,7.32
2023-08-11T09:54:43.927Z,11.52
2023-08-11T09:57:10.816Z,8.45
2023-08-11T09:59:39.087Z,8.43
2023-08-11T10:02:06.260Z,9.88
2023-08-11T10:04:35.602Z,6.65
2023-08-11T10:07:03.194Z,9.32
2023-08-11T10:09:30.279Z,10.27
2023-08-11T10:11:57.968Z,11.57
2023-08-11T10:14:24.926Z,11.95
2023-08-11T10:16:53.241Z,10.48
2023-08-11T10:19:20.181Z,9.88
2023-08-11T10:21:47.120Z,6.70
2023-08-11T10:24:14.328Z,11.57
2023-08-11T10:26:41.273Z,10.35
2023-08-11T10:29:08.615Z,10.00
2023-08-11T10:31:35.639Z,10.30
2023-08-11T10:34:07.785Z,6.47
2023-08-11T10:36:34.754Z,11.02
2023-08-11T10:39:02.724Z,12.45
2023-08-11T10:41:29.656Z,13.55
2023-08-11T10:43:56.712Z,9.50
2023-08-11T10:46:24.524Z,14.13
2023-08-11T10:48:51.815Z,11.85
2023-08-11T10:51:27.000Z,12.40
2023-08-11T10:53:55.767Z,11.70
2023-08-11T10:56:28.794Z,14.95
2023-08-11T10:59:05.570Z,11.30
2023-08-11T11:01:33.595Z,8.30
2023-08-11T11:04:00.505Z,8.23
2023-08-11T11:06:28.871Z,10.13
2023-08-11T11:08:55.778Z,13.25
2023-08-11T11:11:22.691Z,11.43
2023-08-11T11:13:50.279Z,14.57
2023-08-11T11:16:17.208Z,10.27
2023-08-11T11:18:45.672Z,12.27
2023-08-11T11:21:13.129Z,10.73
2023-08-11T11:23:44.190Z,14.05
2023-08-11T11:26:11.098Z,8.13
2023-08-11T11:28:38.028Z,10.88
2023-08-11T11:31:04.934Z,10.27
2023-08-11T11:33:31.840Z,12.15
2023-08-11T11:35:59.043Z,9.40
2023-08-11T11:38:26.058Z,9.98
2023-08-11T11:40:54.324Z,10.02
2023-08-11T11:43:21.253Z,11.20
2023-08-11T11:45:48.362Z,10.30
2023-08-11T11:48:15.261Z,6.70
2023-08-11T11:50:42.174Z,12.60
2023-08-11T11:53:09.065Z,9.38
2023-08-11T11:55:43.933Z,7.32
2023-08-11T11:58:12.445Z,7.90
2023-08-11T12:00:39.381Z,10.02
2023-08-11T12:03:06.580Z,12.25
2023-08-11T12:05:33.604Z,12.38
2023-08-11T12:08:00.529Z,7.93
2023-08-11T12:10:33.728Z,8.75
2023-08-11T12:13:00.658Z,10.48
2023-08-11T12:15:28.954Z,9.63
2023-08-11T12:17:55.892Z,12.18
2023-08-11T12:20:22.855Z,7.40
2023-08-11T12:22:49.820Z,11.82
2023-08-11T12:25:17.140Z,13.32
2023-08-11T12:27:45.608Z,15.02
2023-08-11T12:30:13.547Z,12.45
2023-08-11T12:32:41.876Z,7.70
2023-08-11T12:35:09.886Z,7.80
2023-08-11T12:37:36.817Z,10.45
2023-08-11T12:40:03.896Z,10.45
2023-08-11T12:42:30.807Z,15.00
2023-08-11T12:44:57.750Z,11.95
2023-08-11T12:47:24.739Z,12.25
2023-08-11T12:49:53.065Z,9.77
2023-08-11T12:52:19.951Z,14.77
2023-08-11T12:54:46.841Z,11.23
2023-08-11T12:57:13.756Z,8.90
2023-08-11T12:59:40.708Z,12.07
2023-08-11T13:02:07.982Z,9.75
2023-08-11T13:04:35.260Z,9.77
2023-08-11T13:07:03.681Z,12.43
2023-08-11T13:09:30.564Z,14.20
2023-08-11T13:11:57.491Z,10.02
2023-08-11T13:14:24.433Z,9.93
2023-08-11T13:16:51.476Z,8.43
2023-08-11T13:19:18.384Z,8.95
2023-08-11T13:21:45.311Z,9.65
2023-08-11T13:24:13.667Z,8.18
2023-08-11T13:26:40.618Z,9.85
2023-08-11T13:29:07.536Z,12.55
2023-08-11T13:31:34.496Z,9.75
2023-08-11T13:34:01.433Z,10.45
2023-08-11T13:36:28.333Z,8.93
2023-08-11T13:38:55.254Z,10.15
2023-08-11T13:41:23.549Z,14.82
2023-08-11T13:43:50.439Z,12.88
2023-08-11T13:46:17.400Z,9.93
2023-08-11T13:48:44.352Z,8.63
2023-08-11T13:51:11.254Z,19.02
2023-08-11T13:53:38.159Z,15.63
2023-08-11T13:56:05.096Z,18.00
2023-08-11T13:58:33.377Z,15.90
2023-08-11T14:01:00.335Z,12.88
2023-08-11T14:03:27.289Z,13.50
2023-08-11T14:05:54.221Z,11.07
2023-08-11T14:08:21.141Z,14.65
2023-08-11T14:10:48.222Z,13.18
2023-08-11T14:13:15.137Z,12.77
2023-08-11T14:15:43.445Z,10.13
2023-08-11T14:18:10.461Z,13.57
2023-08-11T14:20:37.530Z,13.07
2023-08-11T14:23:04.646Z,14.18
2023-08-11T14:25:31.581Z,15.88
2023-08-11T14:27:58.625Z,14.85
2023-08-11T14:30:25.669Z,10.13
2023-08-11T14:32:54.058Z,10.85
2023-08-11T14:35:21.066Z,15.00
2023-08-11T14:37:47.998Z,11.02
2023-08-11T14:40:14.896Z,10.65
2023-08-11T14:42:41.833Z,9.85
2023-08-11T14:45:09.478Z,13.27
2023-08-11T14:47:36.433Z,8.48
2023-08-11T14:50:05.337Z,15.23
2023-08-11T14:52:32.239Z,15.88
2023-08-11T14:54:59.160Z,8.10
2023-08-11T14:57:26.056Z,12.65
2023-08-11T14:59:52.961Z,16.35
2023-08-11T15:02:19.920Z,10.57
2023-08-11T15:04:46.838Z,15.65
2023-08-11T15:07:15.124Z,12.75
2023-08-11T15:09:42.063Z,16.77
2023-08-11T15:12:09.912Z,13.45
2023-08-11T15:14:37.178Z,18.48
2023-08-11T15:17:04.120Z,11.02
2023-08-11T15:19:31.133Z,14.68
2023-08-11T15:21:58.065Z,22.38
2023-08-11T15:24:26.379Z,29.25
2023-08-11T15:26:53.457Z,27.20
2023-08-11T15:29:20.424Z,18.85
2023-08-11T15:31:47.435Z,21.90
2023-08-11T15:34:14.552Z,17.02
2023-08-11T15:36:41.464Z,16.33
2023-08-11T15:39:08.357Z,17.13
2023-08-11T15:41:36.632Z,21.77
2023-08-11T15:44:03.886Z,17.60
2023-08-11T15:46:30.911Z,14.98
2023-08-11T15:48:57.827Z,19.95
2023-08-11T15:51:24.761Z,20.48
2023-08-11T15:53:51.651Z,14.02
2023-08-11T15:56:18.568Z,22.58
2023-08-11T15:58:46.857Z,15.98
2023-08-11T16:01:13.790Z,942.92
2023-08-11T16:03:40.737Z,930.05
2023-08-11T16:06:07.754Z,751.05
2023-08-11T16:08:34.659Z,707.10
2023-08-11T16:11:01.584Z,662.55
2023-08-11T16:13:28.473Z,552.90
2023-08-11T16:15:56.801Z,437.08
2023-08-11T16:18:23.739Z,266.65
2023-08-11T16:20:50.655Z,230.02
2023-08-11T16:23:17.659Z,204.05
2023-08-11T16:25:44.617Z,236.95
2023-08-11T16:28:14.721Z,243.82
2023-08-11T16:30:41.676Z,186.55
2023-08-11T16:33:10.074Z,141.18
2023-08-11T16:35:37.026Z,151.52
2023-08-11T16:38:04.318Z,136.77
2023-08-11T16:40:31.242Z,107.65
2023-08-11T16:42:58.191Z,100.47
2023-08-11T16:45:25.080Z,76.05
2023-08-11T16:47:52.029Z,77.50
2023-08-11T16:50:20.599Z,84.50
2023-08-11T16:52:47.511Z,82.53
2023-08-11T16:55:14.434Z,75.28
2023-08-11T16:57:41.355Z,80.63
2023-08-11T17:00:09.519Z,78.70
2023-08-11T17:02:36.588Z,71.60
2023-08-11T17:05:03.700Z,66.22
2023-08-11T17:07:31.973Z,65.88
2023-08-11T17:09:58.908Z,58.20
2023-08-11T17:12:25.893Z,39.63
2023-08-11T17:14:52.782Z,48.47
2023-08-11T17:17:19.789Z,47.83
2023-08-11T17:19:46.873Z,41.17
2023-08-11T17:22:13.948Z,46.70
2023-08-11T17:24:42.359Z,37.35
2023-08-11T17:27:09.346Z,43.55
2023-08-11T17:29:36.398Z,44.35
2023-08-11T17:32:03.446Z,41.85
2023-08-11T17:34:30.380Z,36.70
2023-08-11T17:36:57.318Z,30.45
2023-08-11T17:39:24.227Z,37.53
2023-08-11T17:42:00.522Z,35.08
2023-08-11T17:44:27.428Z,44.35
2023-08-11T17:46:54.385Z,34.38
2023-08-11T17:49:21.323Z,27.10
2023-08-11T17:51:48.216Z,28.90
2023-08-11T17:54:15.130Z,30.65
2023-08-11T17:56:42.022Z,30.85
2023-08-11T17:59:10.305Z,28.20
2023-08-11T18:01:37.665Z,29.27
2023-08-11T18:04:07.855Z,18.77
2023-08-11T18:06:35.272Z,29.65
2023-08-11T18:09:02.245Z,19.90
2023-08-11T18:11:29.145Z,22.75
2023-08-11T18:13:56.073Z,21.10
2023-08-11T18:16:24.720Z,16.77
2023-08-11T18:18:51.683Z,20.25
2023-08-11T18:21:21.180Z,17.13
2023-08-11T18:23:48.650Z,20.08
2023-08-11T18:26:15.580Z,20.27
2023-08-11T18:28:42.478Z,23.55
2023-08-11T18:31:09.498Z,22.42
2023-08-11T18:33:37.912Z,25.67
2023-08-11T18:36:05.338Z,25.70
2023-08-11T18:38:32.276Z,22.52
2023-08-11T18:40:59.206Z,22.65
2023-08-11T18:43:26.101Z,17.02
2023-08-11T18:45:53.062Z,19.65
2023-08-11T18:48:19.974Z,13.73
2023-08-11T18:50:48.277Z,26.58
2023-08-11T18:53:15.181Z,20.50
2023-08-11T18:55:42.094Z,18.13
2023-08-11T18:58:08.984Z,24.20
2023-08-11T19:00:35.893Z,19.13
2023-08-11T19:03:02.974Z,18.38
2023-08-11T19:05:29.952Z,20.65
2023-08-11T19:07:58.196Z,18.92
2023-08-11T19:10:25.149Z,19.85
2023-08-11T19:12:52.140Z,17.35
2023-08-11T19:15:19.405Z,21.23
2023-08-11T19:17:46.299Z,22.17
2023-08-11T19:20:13.424Z,15.23
2023-08-11T19:22:40.356Z,21.25
2023-08-11T19:25:09.152Z,18.02
2023-08-11T19:27:36.225Z,18.27
2023-08-11T19:30:03.252Z,18.40
2023-08-11T19:32:30.206Z,15.80
2023-08-11T19:34:57.228Z,19.15
2023-08-11T19:37:24.138Z,17.52
2023-08-11T19:39:51.053Z,16.95
2023-08-11T19:42:19.310Z,20.17
2023-08-11T19:44:46.235Z,16.98
2023-08-11T19:47:13.134Z,15.73
2023-08-11T19:49:40.043Z,15.93
2023-08-11T19:52:07.041Z,17.08
2023-08-11T19:54:33.972Z,15.63
2023-08-11T19:57:00.886Z,12.52
2023-08-11T19:59:29.176Z,12.68
2023-08-11T20:01:56.111Z,13.82
2023-08-11T20:04:23.070Z,19.70
2023-08-11T20:06:50.000Z,15.73
2023-08-11T20:09:16.902Z,16.15
2023-08-11T20:11:43.804Z,15.57
2023-08-11T20:14:10.719Z,17.10
2023-08-11T20:16:39.259Z,13.18
2023-08-11T20:19:06.157Z,14.55
2023-08-11T20:21:33.044Z,15.70
2023-08-11T20:23:59.953Z,13.02
2023-08-11T20:26:26.972Z,14.75
2023-08-11T20:28:54.523Z,18.25
2023-08-11T20:31:21.556Z,13.85
2023-08-11T20:33:49.894Z,14.40
2023-08-11T20:36:16.852Z,17.00
2023-08-11T20:38:43.764Z,12.30
2023-08-11T20:41:10.679Z,13.68
2023-08-11T20:43:37.595Z,14.32
2023-08-11T20:46:04.529Z,15.90
2023-08-11T20:48:31.490Z,19.95
2023-08-11T20:51:01.967Z,11.30
2023-08-11T20:53:28.929Z,12.90
2023-08-11T20:55:55.850Z,17.25
2023-08-11T20:58:22.808Z,16.15
2023-08-11T21:00:49.785Z,15.48
2023-08-11T21:03:16.775Z,16.63
2023-08-11T21:05:43.686Z,18.48
2023-08-11T21:08:14.267Z,15.05
2023-08-11T21:10:41.372Z,11.25
2023-08-11T21:13:08.299Z,15.60
2023-08-11T21:15:35.192Z,19.40
2023-08-11T21:18:02.175Z,14.05
2023-08-11T21:20:29.104Z,15.35
2023-08-11T21:22:56.006Z,10.65
2023-08-11T21:25:24.282Z,14.82
2023-08-11T21:27:51.188Z,13.00
2023-08-11T21:30:18.265Z,15.65
2023-08-11T21:32:45.193Z,13.77
2023-08-11T21:35:12.316Z,13.10
2023-08-11T21:37:39.281Z,15.35
2023-08-11T21:40:07.778Z,15.20
2023-08-11T21:42:36.044Z,12.43
2023-08-11T21:45:03.057Z,13.30
2023-08-11T21:47:29.985Z,13.90
2023-08-11T21:49:56.884Z,13.07
2023-08-11T21:52:23.880Z,15.63
2023-08-11T21:54:50.796Z,10.77
2023-08-11T21:57:17.724Z,18.83
2023-08-11T21:59:45.997Z,13.48
2023-08-11T22:02:13.040Z,15.32
2023-08-11T22:04:40.024Z,15.85
2023-08-11T22:07:06.941Z,11.70
2023-08-11T22:09:33.839Z,15.68
2023-08-11T22:12:00.773Z,14.55
2023-08-11T22:14:27.660Z,12.02
2023-08-11T22:16:58.207Z,15.45
2023-08-11T22:19:25.181Z,17.90
2023-08-11T22:21:52.311Z,9.55
2023-08-11T22:24:30.676Z,18.55
2023-08-11T22:27:06.147Z,14.82
2023-08-11T22:29:33.058Z,13.90
2023-08-11T22:32:01.368Z,14.25
2023-08-11T22:34:28.287Z,14.55
2023-08-11T22:36:55.211Z,13.60
2023-08-11T22:39:22.625Z,18.83
2023-08-11T22:41:49.555Z,13.32
2023-08-11T22:44:16.481Z,13.25
2023-08-11T22:46:43.389Z,13.00
2023-08-11T22:49:11.660Z,10.98
2023-08-11T22:51:38.554Z,16.88
2023-08-11T22:54:05.773Z,11.27
2023-08-11T22:56:32.697Z,14.98
2023-08-11T22:58:59.603Z,12.15
2023-08-11T23:01:26.538Z,12.40
2023-08-11T23:03:53.446Z,10.95
2023-08-11T23:06:21.771Z,10.30
2023-08-11T23:08:48.688Z,13.40
2023-08-11T23:11:15.606Z,12.57
2023-08-11T23:13:42.499Z,17.73
2023-08-11T23:16:09.448Z,10.65
2023-08-11T23:18:36.415Z,16.17
2023-08-11T23:21:03.334Z,11.82
2023-08-11T23:23:31.600Z,9.55
2023-08-11T23:25:58.494Z,10.68
2023-08-11T23:28:25.430Z,13.55
2023-08-11T23:30:52.326Z,11.68
2023-08-11T23:33:19.269Z,15.38
2023-08-11T23:35:46.230Z,11.52
2023-08-11T23:38:13.232Z,11.43
2023-08-11T23:40:41.537Z,11.82
2023-08-11T23:43:08.434Z,14.88
2023-08-11T23:45:35.428Z,16.63
2023-08-11T23:48:02.928Z,10.98
2023-08-11T23:50:29.900Z,8.95
2023-08-11T23:52:56.815Z,9.88
2023-08-11T23:55:23.752Z,11.45
2023-08-11T23:57:52.064Z,13.90
